createdAt,value
2023-01-26T00:01:55.762Z,18.77
2023-01-26T00:04:22.164Z,19.58
2023-01-26T00:06:48.638Z,18.95
2023-01-26T00:09:15.508Z,20.27
2023-01-26T00:11:41.984Z,20.25
2023-01-26T00:14:08.530Z,21.33
2023-01-26T00:16:35.370Z,19.23
2023-01-26T00:19:02.115Z,20.50
2023-01-26T00:21:29.495Z,22.05
2023-01-26T00:23:55.889Z,20.98
2023-01-26T00:26:22.588Z,20.70
2023-01-26T00:28:49.289Z,20.48
2023-01-26T00:31:15.819Z,19.38
2023-01-26T00:33:42.194Z,20.83
2023-01-26T00:36:08.821Z,20.05
2023-01-26T00:38:35.469Z,19.75
2023-01-26T00:41:02.218Z,19.85
2023-01-26T00:43:29.314Z,18.13
2023-01-26T00:45:55.796Z,17.52
2023-01-26T00:48:24.660Z,18.83
2023-01-26T00:50:51.988Z,19.42
2023-01-26T00:53:18.600Z,20.02
2023-01-26T00:55:45.321Z,19.40
2023-01-26T00:58:12.271Z,16.77
2023-01-26T01:00:38.830Z,20.58
2023-01-26T01:03:05.544Z,19.85
2023-01-26T01:05:31.968Z,17.90
2023-01-26T01:07:58.415Z,18.77
2023-01-26T01:10:25.284Z,18.58
2023-01-26T01:12:52.030Z,18.55
2023-01-26T01:15:18.651Z,19.90
2023-01-26T01:17:45.240Z,19.80
2023-01-26T01:20:12.194Z,19.10
2023-01-26T01:22:38.767Z,16.55
2023-01-26T01:25:05.581Z,17.67
2023-01-26T01:27:32.099Z,17.42
2023-01-26T01:29:58.884Z,20.02
2023-01-26T01:32:25.664Z,17.05
2023-01-26T01:34:52.114Z,18.92
2023-01-26T01:37:19.200Z,17.13
2023-01-26T01:39:46.527Z,15.18
2023-01-26T01:42:12.936Z,17.83
2023-01-26T01:44:39.859Z,16.30
2023-01-26T01:47:06.262Z,17.90
2023-01-26T01:49:33.015Z,15.60
2023-01-26T01:51:59.897Z,17.60
2023-01-26T01:54:26.345Z,17.38
2023-01-26T01:56:52.719Z,16.58
2023-01-26T01:59:19.337Z,16.70
2023-01-26T02:01:46.325Z,16.98
2023-01-26T02:04:13.413Z,14.75
2023-01-26T02:06:40.267Z,15.88
2023-01-26T02:09:07.100Z,16.63
2023-01-26T02:11:34.361Z,16.95
2023-01-26T02:14:01.231Z,15.93
2023-01-26T02:16:27.858Z,14.88
2023-01-26T02:18:54.310Z,17.25
2023-01-26T02:21:21.379Z,14.43
2023-01-26T02:23:47.983Z,16.58
2023-01-26T02:26:14.304Z,16.10
2023-01-26T02:28:41.013Z,16.42
2023-01-26T02:31:07.541Z,15.32
2023-01-26T02:33:34.390Z,15.35
2023-01-26T02:36:01.036Z,16.00
2023-01-26T02:38:27.494Z,14.82
2023-01-26T02:40:53.928Z,15.60
2023-01-26T02:43:20.240Z,15.75
2023-01-26T02:45:46.785Z,15.10
2023-01-26T02:48:13.646Z,14.50
2023-01-26T02:50:40.370Z,15.52
2023-01-26T02:53:06.800Z,15.43
2023-01-26T02:55:33.209Z,14.93
2023-01-26T02:57:59.623Z,13.98
2023-01-26T03:00:26.369Z,14.65
2023-01-26T03:02:52.982Z,15.85
2023-01-26T03:05:19.433Z,15.65
2023-01-26T03:07:45.880Z,15.05
2023-01-26T03:10:13.050Z,14.23
2023-01-26T03:12:39.753Z,13.38
2023-01-26T03:15:06.199Z,13.85
2023-01-26T03:17:32.931Z,14.43
2023-01-26T03:19:59.861Z,13.65
2023-01-26T03:22:26.828Z,16.05
2023-01-26T03:24:53.315Z,12.95
2023-01-26T03:27:20.144Z,15.30
2023-01-26T03:29:47.100Z,14.15
2023-01-26T03:32:13.531Z,13.38
2023-01-26T03:34:40.351Z,16.10
2023-01-26T03:37:07.266Z,15.60
2023-01-26T03:39:33.658Z,14.25
2023-01-26T03:42:00.158Z,13.40
2023-01-26T03:44:26.819Z,13.90
2023-01-26T03:46:53.826Z,14.77
2023-01-26T03:49:20.560Z,13.35
2023-01-26T03:51:47.387Z,13.63
2023-01-26T03:54:14.430Z,14.70
2023-01-26T03:56:40.802Z,12.95
2023-01-26T03:59:07.240Z,15.07
2023-01-26T04:01:33.683Z,13.85
2023-01-26T04:04:00.199Z,15.23
2023-01-26T04:06:27.136Z,13.55
2023-01-26T04:08:54.073Z,13.40
2023-01-26T04:11:20.645Z,15.10
2023-01-26T04:13:47.165Z,13.88
2023-01-26T04:16:14.193Z,14.15
2023-01-26T04:18:40.601Z,12.93
2023-01-26T04:21:07.203Z,11.52
2023-01-26T04:23:33.985Z,16.33
2023-01-26T04:26:00.508Z,14.80
2023-01-26T04:28:26.897Z,16.02
2023-01-26T04:30:53.557Z,13.65
2023-01-26T04:33:19.911Z,14.02
2023-01-26T04:35:46.737Z,14.95
2023-01-26T04:38:13.485Z,14.27
2023-01-26T04:40:40.095Z,15.05
2023-01-26T04:43:06.507Z,14.60
2023-01-26T04:45:33.695Z,14.20
2023-01-26T04:48:00.712Z,14.57
2023-01-26T04:50:27.592Z,14.52
2023-01-26T04:52:54.417Z,13.82
2023-01-26T04:55:20.804Z,14.48
2023-01-26T04:57:47.652Z,14.27
2023-01-26T05:00:14.463Z,13.77
2023-01-26T05:02:41.194Z,14.45
2023-01-26T05:05:07.702Z,14.38
2023-01-26T05:07:34.470Z,14.52
2023-01-26T05:10:01.067Z,16.02
2023-01-26T05:12:27.851Z,12.95
2023-01-26T05:14:55.072Z,13.70
2023-01-26T05:17:21.494Z,15.05
2023-01-26T05:19:48.458Z,13.60
2023-01-26T05:22:15.235Z,15.63
2023-01-26T05:24:41.632Z,13.13
2023-01-26T05:27:07.930Z,13.57
2023-01-26T05:29:34.800Z,14.55
2023-01-26T05:32:01.202Z,13.77
2023-01-26T05:34:27.617Z,12.65
2023-01-26T05:36:54.102Z,13.57
2023-01-26T05:39:20.720Z,14.18
2023-01-26T05:41:47.391Z,12.68
2023-01-26T05:44:13.804Z,14.10
2023-01-26T05:46:40.547Z,13.30
2023-01-26T05:49:07.404Z,14.23
2023-01-26T05:51:33.895Z,14.02
2023-01-26T05:54:00.551Z,13.98
2023-01-26T05:56:26.978Z,16.25
2023-01-26T05:58:53.305Z,13.30
2023-01-26T06:01:19.807Z,13.27
2023-01-26T06:03:46.516Z,15.40
2023-01-26T06:06:12.986Z,13.05
2023-01-26T06:08:39.728Z,13.65
2023-01-26T06:11:06.081Z,16.27
2023-01-26T06:13:32.447Z,13.32
2023-01-26T06:15:58.820Z,13.75
2023-01-26T06:18:25.478Z,14.50
2023-01-26T06:20:52.103Z,12.98
2023-01-26T06:23:18.452Z,13.75
2023-01-26T06:25:45.185Z,14.45
2023-01-26T06:28:11.804Z,13.18
2023-01-26T06:30:38.452Z,12.95
2023-01-26T06:33:05.155Z,14.02
2023-01-26T06:35:32.091Z,12.05
2023-01-26T06:37:58.685Z,13.88
2023-01-26T06:40:25.287Z,13.93
2023-01-26T06:42:51.743Z,13.00
2023-01-26T06:45:19.493Z,12.55
2023-01-26T06:47:45.983Z,17.02
2023-01-26T06:50:12.764Z,14.60
2023-01-26T06:52:41.421Z,14.60
2023-01-26T06:55:08.574Z,13.65
2023-01-26T06:57:35.122Z,14.55
2023-01-26T07:00:02.274Z,12.85
2023-01-26T07:02:29.030Z,15.38
2023-01-26T07:04:55.776Z,14.93
2023-01-26T07:07:22.232Z,17.08
2023-01-26T07:09:48.898Z,14.98
2023-01-26T07:12:15.577Z,16.17
2023-01-26T07:14:42.110Z,17.70
2023-01-26T07:17:08.915Z,16.85
2023-01-26T07:19:35.511Z,16.60
2023-01-26T07:22:01.947Z,18.48
2023-01-26T07:24:28.347Z,15.65
2023-01-26T07:26:55.275Z,14.95
2023-01-26T07:29:21.822Z,18.13
2023-01-26T07:31:48.312Z,15.25
2023-01-26T07:34:15.368Z,16.33
2023-01-26T07:36:42.037Z,16.77
2023-01-26T07:39:08.918Z,18.52
2023-01-26T07:41:35.463Z,16.73
2023-01-26T07:44:02.087Z,17.20
2023-01-26T07:46:28.864Z,15.32
2023-01-26T07:48:55.462Z,16.02
2023-01-26T07:51:22.123Z,17.27
2023-01-26T07:53:49.446Z,18.35
2023-01-26T07:56:15.891Z,18.13
2023-01-26T07:58:42.570Z,18.83
2023-01-26T08:01:09.182Z,17.25
2023-01-26T08:03:35.525Z,17.00
2023-01-26T08:06:01.934Z,16.17
2023-01-26T08:08:28.383Z,18.65
2023-01-26T08:10:54.962Z,18.20
2023-01-26T08:13:34.381Z,19.17
2023-01-26T08:16:01.429Z,18.50
2023-01-26T08:18:27.919Z,19.10
2023-01-26T08:20:54.378Z,18.73
2023-01-26T08:23:20.708Z,19.02
2023-01-26T08:25:48.043Z,17.92
2023-01-26T08:28:14.655Z,18.27
2023-01-26T08:30:41.028Z,20.77
2023-01-26T08:33:08.073Z,19.90
2023-01-26T08:35:34.527Z,18.20
2023-01-26T08:38:01.461Z,20.20
2023-01-26T08:40:27.818Z,20.05
2023-01-26T08:42:54.546Z,21.10
2023-01-26T08:45:21.088Z,18.92
2023-01-26T08:47:47.885Z,19.20
2023-01-26T08:50:14.467Z,21.27
2023-01-26T08:52:41.115Z,18.27
2023-01-26T08:55:07.868Z,22.45
2023-01-26T08:57:34.772Z,21.17
2023-01-26T09:00:01.363Z,20.80
2023-01-26T09:02:27.816Z,22.75
2023-01-26T09:04:54.230Z,24.33
2023-01-26T09:07:21.312Z,22.48
2023-01-26T09:09:48.195Z,21.88
2023-01-26T09:12:15.030Z,20.83
2023-01-26T09:14:41.589Z,22.35
2023-01-26T09:17:08.651Z,24.27
2023-01-26T09:19:35.124Z,26.98
2023-01-26T09:22:01.619Z,29.08
2023-01-26T09:24:28.107Z,29.25
2023-01-26T09:26:55.226Z,31.90
2023-01-26T09:29:21.731Z,34.63
2023-01-26T09:31:48.300Z,37.30
2023-01-26T09:34:14.903Z,41.17
2023-01-26T09:36:41.645Z,43.00
2023-01-26T09:39:08.241Z,48.83
2023-01-26T09:41:34.928Z,53.38
2023-01-26T09:44:01.658Z,49.58
2023-01-26T09:46:28.542Z,51.95
2023-01-26T09:48:55.213Z,56.40
2023-01-26T09:51:21.747Z,60.25
2023-01-26T09:53:48.734Z,71.18
2023-01-26T09:56:15.275Z,66.00
2023-01-26T09:58:42.054Z,73.75
2023-01-26T10:01:08.488Z,77.80
2023-01-26T10:03:35.153Z,78.35
2023-01-26T10:06:02.182Z,74.05
2023-01-26T10:08:28.732Z,74.53
2023-01-26T10:10:55.024Z,75.30
2023-01-26T10:13:21.484Z,78.07
2023-01-26T10:15:47.814Z,74.57
2023-01-26T10:18:14.224Z,81.65
2023-01-26T10:20:40.646Z,80.47
2023-01-26T10:23:07.406Z,93.45
2023-01-26T10:25:33.820Z,94.03
2023-01-26T10:28:00.175Z,101.03
2023-01-26T10:30:26.724Z,95.75
2023-01-26T10:32:53.373Z,90.57
2023-01-26T10:35:20.139Z,91.68
2023-01-26T10:37:46.889Z,96.13
2023-01-26T10:40:13.774Z,104.03
2023-01-26T10:42:40.168Z,92.88
2023-01-26T10:45:06.801Z,96.65
2023-01-26T10:47:33.225Z,96.05
2023-01-26T10:49:59.569Z,97.95
2023-01-26T10:52:26.024Z,93.90
2023-01-26T10:54:53.037Z,104.45
2023-01-26T10:57:19.500Z,100.95
2023-01-26T10:59:46.114Z,103.30
2023-01-26T11:02:12.878Z,113.13
2023-01-26T11:04:39.816Z,106.97
2023-01-26T11:07:06.799Z,116.20
2023-01-26T11:09:33.158Z,124.65
2023-01-26T11:11:59.685Z,127.60
2023-01-26T11:14:26.210Z,128.68
2023-01-26T11:16:52.571Z,126.38
2023-01-26T11:19:21.012Z,120.53
2023-01-26T11:21:47.891Z,129.60
2023-01-26T11:24:14.986Z,125.65
2023-01-26T11:26:41.418Z,123.47
2023-01-26T11:29:07.850Z,116.35
2023-01-26T11:31:34.441Z,110.57
2023-01-26T11:34:00.932Z,115.00
2023-01-26T11:36:28.284Z,104.63
2023-01-26T11:38:55.048Z,104.50
2023-01-26T11:41:21.446Z,98.55
2023-01-26T11:43:47.904Z,101.30
2023-01-26T11:46:14.751Z,101.88
2023-01-26T11:48:41.153Z,99.88
2023-01-26T11:51:07.541Z,95.25
2023-01-26T11:53:33.906Z,101.72
2023-01-26T11:56:00.619Z,97.95
2023-01-26T11:58:27.111Z,103.07
2023-01-26T12:00:54.450Z,91.05
2023-01-26T12:03:21.572Z,84.82
2023-01-26T12:05:48.337Z,91.50
2023-01-26T12:08:14.622Z,92.20
2023-01-26T12:10:41.635Z,97.95
2023-01-26T12:13:08.150Z,107.47
2023-01-26T12:15:34.673Z,115.53
2023-01-26T12:18:01.002Z,124.05
2023-01-26T12:20:27.693Z,137.02
2023-01-26T12:22:54.197Z,135.20
2023-01-26T12:25:21.294Z,133.90
2023-01-26T12:27:47.816Z,128.68
2023-01-26T12:30:14.897Z,133.18
2023-01-26T12:32:41.790Z,124.22
2023-01-26T12:35:08.904Z,121.07
2023-01-26T12:37:35.605Z,117.72
2023-01-26T12:40:01.983Z,101.15
2023-01-26T12:42:28.837Z,115.60
2023-01-26T12:44:56.018Z,108.22
2023-01-26T12:47:22.617Z,99.78
2023-01-26T12:49:49.553Z,98.57
2023-01-26T12:52:16.482Z,97.70
2023-01-26T12:54:43.219Z,96.53
2023-01-26T12:57:09.909Z,82.90
2023-01-26T12:59:46.561Z,92.60
2023-01-26T13:02:15.313Z,87.47
2023-01-26T13:04:41.954Z,82.90
2023-01-26T13:07:09.125Z,81.43
2023-01-26T13:09:35.893Z,82.78
2023-01-26T13:12:02.309Z,80.10
2023-01-26T13:14:29.607Z,80.05
2023-01-26T13:16:55.995Z,71.00
2023-01-26T13:19:22.817Z,76.20
2023-01-26T13:21:49.752Z,76.22
2023-01-26T13:24:16.174Z,66.65
2023-01-26T13:26:42.588Z,71.03
2023-01-26T13:29:09.332Z,66.72
2023-01-26T13:31:35.946Z,64.13
2023-01-26T13:34:02.497Z,72.57
2023-01-26T13:36:29.078Z,62.65
2023-01-26T13:38:55.898Z,64.88
2023-01-26T13:41:23.157Z,56.38
2023-01-26T13:43:49.877Z,59.28
2023-01-26T13:46:16.858Z,58.50
2023-01-26T13:48:43.270Z,63.15
2023-01-26T13:51:10.134Z,63.13
2023-01-26T13:53:37.153Z,52.92
2023-01-26T13:56:04.249Z,55.50
2023-01-26T13:58:30.853Z,51.28
2023-01-26T14:00:57.504Z,54.20
2023-01-26T14:03:24.280Z,49.53
2023-01-26T14:05:51.012Z,47.15
2023-01-26T14:08:17.689Z,48.95
2023-01-26T14:10:44.210Z,46.67
2023-01-26T14:13:10.714Z,48.75
2023-01-26T14:15:37.413Z,47.38
2023-01-26T14:18:03.894Z,46.85
2023-01-26T14:20:30.623Z,45.90
2023-01-26T14:22:57.455Z,45.45
2023-01-26T14:25:23.954Z,45.67
2023-01-26T14:27:50.386Z,42.72
2023-01-26T14:30:17.252Z,46.65
2023-01-26T14:32:44.062Z,38.97
2023-01-26T14:35:10.801Z,39.33
2023-01-26T14:37:37.477Z,39.70
2023-01-26T14:40:04.233Z,39.58
2023-01-26T14:42:30.942Z,40.15
2023-01-26T14:44:57.518Z,38.10
2023-01-26T14:47:23.856Z,38.38
2023-01-26T14:49:50.153Z,36.75
2023-01-26T14:52:16.513Z,37.15
2023-01-26T14:54:43.187Z,38.70
2023-01-26T14:57:10.012Z,33.75
2023-01-26T14:59:36.675Z,35.60
2023-01-26T15:02:03.491Z,33.60
2023-01-26T15:04:30.125Z,37.90
2023-01-26T15:06:56.520Z,34.65
2023-01-26T15:09:23.296Z,33.15
2023-01-26T15:11:50.204Z,32.72
2023-01-26T15:14:17.078Z,34.47
2023-01-26T15:16:43.813Z,29.20
2023-01-26T15:19:10.173Z,33.58
2023-01-26T15:21:36.916Z,31.33
2023-01-26T15:24:03.426Z,30.83
2023-01-26T15:26:30.245Z,32.78
2023-01-26T15:28:56.548Z,30.27
2023-01-26T15:31:23.558Z,30.20
2023-01-26T15:33:49.917Z,27.27
2023-01-26T15:36:16.243Z,29.17
2023-01-26T15:38:43.147Z,31.73
2023-01-26T15:41:09.534Z,28.90
2023-01-26T15:43:36.103Z,29.77
2023-01-26T15:46:02.787Z,28.38
2023-01-26T15:48:29.406Z,30.35
2023-01-26T15:50:56.105Z,26.75
2023-01-26T15:53:22.604Z,26.33
2023-01-26T15:55:49.527Z,27.92
2023-01-26T15:58:16.512Z,29.25
2023-01-26T16:00:43.401Z,28.00
2023-01-26T16:03:09.844Z,27.27
2023-01-26T16:05:36.278Z,27.08
2023-01-26T16:08:02.794Z,24.98
2023-01-26T16:10:29.304Z,24.88
2023-01-26T16:12:55.699Z,25.80
2023-01-26T16:15:22.470Z,24.58
2023-01-26T16:17:48.912Z,26.45
2023-01-26T16:20:16.103Z,27.10
2023-01-26T16:22:42.896Z,25.90
2023-01-26T16:25:10.230Z,31.13
2023-01-26T16:27:37.282Z,29.05
2023-01-26T16:30:03.954Z,27.77
2023-01-26T16:32:30.403Z,26.63
2023-01-26T16:34:56.861Z,26.95
2023-01-26T16:37:23.634Z,29.40
2023-01-26T16:39:50.391Z,26.85
2023-01-26T16:42:16.904Z,28.35
2023-01-26T16:44:44.007Z,26.60
2023-01-26T16:47:11.181Z,29.75
2023-01-26T16:49:37.642Z,28.58
2023-01-26T16:52:04.472Z,28.42
2023-01-26T16:54:31.260Z,27.38
2023-01-26T16:56:57.757Z,28.45
2023-01-26T16:59:24.375Z,31.23
2023-01-26T17:01:51.203Z,29.67
2023-01-26T17:04:17.629Z,27.00
2023-01-26T17:06:44.162Z,26.48
2023-01-26T17:09:10.642Z,27.95
2023-01-26T17:11:37.514Z,26.85
2023-01-26T17:14:03.909Z,27.90
2023-01-26T17:16:30.313Z,26.60
2023-01-26T17:18:57.393Z,31.58
2023-01-26T17:21:24.118Z,28.02
2023-01-26T17:23:51.085Z,26.05
2023-01-26T17:26:17.654Z,28.25
2023-01-26T17:28:44.116Z,26.48
2023-01-26T17:31:10.558Z,25.77
2023-01-26T17:33:37.524Z,25.13
2023-01-26T17:36:04.262Z,27.27
2023-01-26T17:38:30.703Z,24.50
2023-01-26T17:40:57.765Z,27.20
2023-01-26T17:43:24.682Z,25.58
2023-01-26T17:45:51.647Z,27.33
2023-01-26T17:48:18.315Z,22.83
2023-01-26T17:50:44.991Z,24.63
2023-01-26T17:53:11.411Z,24.55
2023-01-26T17:55:37.715Z,24.77
2023-01-26T17:58:04.739Z,25.38
2023-01-26T18:00:31.085Z,58.88
2023-01-26T18:02:58.203Z,116.55
2023-01-26T18:05:24.559Z,123.05
2023-01-26T18:07:51.182Z,129.55
2023-01-26T18:10:17.623Z,122.75
2023-01-26T18:12:44.298Z,120.72
2023-01-26T18:15:11.014Z,114.72
2023-01-26T18:17:37.841Z,146.27
2023-01-26T18:20:05.084Z,209.43
2023-01-26T18:22:32.035Z,214.63
2023-01-26T18:24:58.733Z,205.57
2023-01-26T18:27:25.478Z,203.77
2023-01-26T18:29:52.550Z,225.90
2023-01-26T18:32:19.273Z,254.27
2023-01-26T18:34:46.046Z,277.48
2023-01-26T18:37:12.528Z,264.77
2023-01-26T18:39:38.965Z,253.73
2023-01-26T18:42:05.483Z,239.75
2023-01-26T18:44:32.325Z,258.73
2023-01-26T18:46:58.935Z,236.98
2023-01-26T18:49:25.849Z,227.27
2023-01-26T18:51:52.451Z,223.95
2023-01-26T18:54:18.977Z,215.13
2023-01-26T18:56:45.697Z,209.02
2023-01-26T18:59:12.728Z,208.80
2023-01-26T19:01:39.921Z,191.20
2023-01-26T19:04:06.880Z,273.73
2023-01-26T19:06:33.689Z,303.42
2023-01-26T19:09:00.458Z,327.85
2023-01-26T19:11:27.976Z,365.30
2023-01-26T19:13:55.152Z,362.58
2023-01-26T19:16:22.461Z,361.50
2023-01-26T19:18:48.999Z,393.70
2023-01-26T19:21:15.654Z,393.00
2023-01-26T19:23:42.091Z,386.20
2023-01-26T19:26:08.781Z,388.55
2023-01-26T19:28:35.276Z,372.80
2023-01-26T19:31:01.672Z,392.40
2023-01-26T19:33:28.095Z,452.80
2023-01-26T19:35:54.781Z,495.55
2023-01-26T19:38:21.233Z,492.05
2023-01-26T19:40:47.643Z,477.17
2023-01-26T19:43:14.110Z,459.40
2023-01-26T19:45:40.705Z,459.67
2023-01-26T19:48:07.209Z,448.90
2023-01-26T19:50:33.613Z,430.17
2023-01-26T19:53:00.136Z,462.92
2023-01-26T19:55:26.508Z,480.25
2023-01-26T19:57:53.104Z,503.95
2023-01-26T20:00:19.714Z,511.17
2023-01-26T20:02:46.067Z,534.92
2023-01-26T20:05:13.099Z,551.92
2023-01-26T20:07:39.748Z,550.00
2023-01-26T20:10:06.200Z,532.78
2023-01-26T20:12:32.602Z,497.60
2023-01-26T20:15:00.641Z,468.42
2023-01-26T20:17:27.354Z,449.00
2023-01-26T20:19:53.892Z,429.23
2023-01-26T20:22:20.536Z,399.55
2023-01-26T20:24:47.181Z,372.05
2023-01-26T20:27:14.098Z,347.67
2023-01-26T20:29:40.929Z,338.38
2023-01-26T20:32:07.355Z,314.65
2023-01-26T20:34:33.719Z,293.17
2023-01-26T20:37:00.238Z,286.05
2023-01-26T20:39:27.147Z,272.55
2023-01-26T20:41:53.522Z,343.23
2023-01-26T20:44:20.035Z,379.95
2023-01-26T20:46:46.996Z,346.80
2023-01-26T20:49:13.487Z,327.20
2023-01-26T20:51:40.096Z,366.02
2023-01-26T20:54:06.557Z,376.85
2023-01-26T20:56:33.298Z,351.63
2023-01-26T20:58:59.843Z,322.38
2023-01-26T21:01:26.870Z,297.15
2023-01-26T21:03:53.856Z,285.30
2023-01-26T21:06:20.584Z,261.98
2023-01-26T21:08:47.113Z,243.15
2023-01-26T21:11:13.643Z,302.73
2023-01-26T21:13:40.040Z,367.92
2023-01-26T21:16:06.707Z,322.27
2023-01-26T21:18:33.167Z,291.92
2023-01-26T21:20:59.758Z,277.05
2023-01-26T21:23:26.375Z,255.75
2023-01-26T21:25:52.748Z,239.57
2023-01-26T21:28:19.271Z,225.82
2023-01-26T21:30:45.807Z,205.20
2023-01-26T21:33:12.157Z,197.10
2023-01-26T21:35:38.645Z,179.20
2023-01-26T21:38:05.104Z,164.45
2023-01-26T21:40:31.608Z,266.80
2023-01-26T21:42:57.975Z,286.45
2023-01-26T21:45:25.033Z,269.85
2023-01-26T21:47:51.527Z,246.38
2023-01-26T21:50:18.310Z,226.10
2023-01-26T21:52:44.906Z,210.88
2023-01-26T21:55:11.614Z,193.02
2023-01-26T21:57:38.346Z,183.98
2023-01-26T22:00:04.862Z,164.95
2023-01-26T22:02:31.459Z,160.85
2023-01-26T22:04:57.839Z,161.77
2023-01-26T22:07:24.678Z,251.95
2023-01-26T22:09:51.752Z,249.40
2023-01-26T22:12:18.203Z,221.05
2023-01-26T22:14:44.669Z,213.32
2023-01-26T22:17:11.184Z,198.00
2023-01-26T22:19:37.654Z,190.10
2023-01-26T22:22:04.118Z,232.13
2023-01-26T22:24:31.168Z,284.48
2023-01-26T22:26:57.807Z,247.80
2023-01-26T22:29:24.596Z,240.25
2023-01-26T22:31:51.744Z,236.68
2023-01-26T22:34:18.276Z,227.25
2023-01-26T22:36:44.770Z,227.60
2023-01-26T22:39:11.350Z,223.35
2023-01-26T22:41:38.074Z,210.60
2023-01-26T22:44:04.535Z,669.40
2023-01-26T22:46:31.082Z,643.53
2023-01-26T22:48:57.637Z,451.60
2023-01-26T22:51:24.107Z,419.38
2023-01-26T22:53:50.451Z,400.35
2023-01-26T22:56:17.179Z,386.17
2023-01-26T22:58:57.072Z,355.48
2023-01-26T23:01:25.177Z,342.73
2023-01-26T23:03:52.115Z,323.98
2023-01-26T23:06:18.956Z,319.33
2023-01-26T23:08:46.274Z,309.23
2023-01-26T23:11:12.975Z,299.13
2023-01-26T23:13:42.055Z,295.52
2023-01-26T23:16:09.279Z,282.75
2023-01-26T23:18:35.790Z,283.08
2023-01-26T23:21:02.325Z,270.77
2023-01-26T23:23:29.432Z,271.13
2023-01-26T23:25:55.907Z,264.45
2023-01-26T23:28:22.417Z,258.65
2023-01-26T23:30:49.457Z,246.82
2023-01-26T23:33:16.057Z,240.95
2023-01-26T23:35:42.494Z,237.57
2023-01-26T23:38:09.010Z,238.82
2023-01-26T23:40:35.577Z,220.77
2023-01-26T23:43:15.711Z,219.98
2023-01-26T23:45:43.351Z,212.60
2023-01-26T23:48:09.894Z,214.32
2023-01-26T23:50:36.529Z,202.05
2023-01-26T23:53:03.131Z,201.00
2023-01-26T23:55:29.938Z,198.82
2023-01-26T23:57:56.287Z,190.07
